sensor_id;sensor_type;location;lat;lon;timestamp;P1;durP1;ratioP1;P2;durP2;ratioP2
8819;SDS011;4446;50.876;4.736;2023-05-16T00:02:16;8.45;;;1.60;;
8819;SDS011;4446;50.876;4.736;2023-05-16T00:04:44;10.65;;;2.25;;
8819;SDS011;4446;50.876;4.736;2023-05-16T00:07:13;6.28;;;1.70;;
8819;SDS011;4446;50.876;4.736;2023-05-16T00:09:40;3.72;;;1.70;;
8819;SDS011;4446;50.876;4.736;2023-05-16T00:12:07;8.85;;;1.95;;
8819;SDS011;4446;50.876;4.736;2023-05-16T00:14:34;6.38;;;1.92;;
8819;SDS011;4446;50.876;4.736;2023-05-16T00:17:01;7.53;;;1.70;;
8819;SDS011;4446;50.876;4.736;2023-05-16T00:19:35;6.70;;;2.85;;
8819;SDS011;4446;50.876;4.736;2023-05-16T00:22:03;9.40;;;2.17;;
8819;SDS011;4446;50.876;4.736;2023-05-16T00:24:32;6.00;;;1.70;;
8819;SDS011;4446;50.876;4.736;2023-05-16T00:27:00;2.78;;;1.40;;
8819;SDS011;4446;50.876;4.736;2023-05-16T00:29:28;6.15;;;2.45;;
8819;SDS011;4446;50.876;4.736;2023-05-16T00:31:55;4.95;;;1.80;;
8819;SDS011;4446;50.876;4.736;2023-05-16T00:34:23;6.80;;;1.80;;
8819;SDS011;4446;50.876;4.736;2023-05-16T00:36:50;3.33;;;1.38;;
8819;SDS011;4446;50.876;4.736;2023-05-16T00:39:17;6.70;;;2.10;;
8819;SDS011;4446;50.876;4.736;2023-05-16T00:41:45;5.05;;;2.00;;
8819;SDS011;4446;50.876;4.736;2023-05-16T00:44:12;9.63;;;1.77;;
8819;SDS011;4446;50.876;4.736;2023-05-16T00:46:39;5.80;;;1.67;;
8819;SDS011;4446;50.876;4.736;2023-05-16T00:49:06;8.48;;;2.20;;
8819;SDS011;4446;50.876;4.736;2023-05-16T00:51:34;5.75;;;1.98;;
8819;SDS011;4446;50.876;4.736;2023-05-16T00:54:02;7.32;;;1.73;;
8819;SDS011;4446;50.876;4.736;2023-05-16T00:56:31;3.85;;;1.42;;
8819;SDS011;4446;50.876;4.736;2023-05-16T00:59:00;7.53;;;1.98;;
8819;SDS011;4446;50.876;4.736;2023-05-16T01:01:28;3.72;;;1.77;;
8819;SDS011;4446;50.876;4.736;2023-05-16T01:03:55;4.60;;;1.85;;
8819;SDS011;4446;50.876;4.736;2023-05-16T01:06:24;2.60;;;1.40;;
8819;SDS011;4446;50.876;4.736;2023-05-16T01:08:52;5.97;;;1.73;;
8819;SDS011;4446;50.876;4.736;2023-05-16T01:11:21;7.20;;;1.70;;
8819;SDS011;4446;50.876;4.736;2023-05-16T01:13:54;9.02;;;2.47;;
8819;SDS011;4446;50.876;4.736;2023-05-16T01:16:29;11.50;;;2.42;;
8819;SDS011;4446;50.876;4.736;2023-05-16T01:19:04;6.88;;;1.75;;
8819;SDS011;4446;50.876;4.736;2023-05-16T01:21:41;5.45;;;1.80;;
8819;SDS011;4446;50.876;4.736;2023-05-16T01:24:19;8.77;;;1.70;;
8819;SDS011;4446;50.876;4.736;2023-05-16T01:26:53;4.20;;;1.45;;
8819;SDS011;4446;50.876;4.736;2023-05-16T01:29:22;3.58;;;1.60;;
8819;SDS011;4446;50.876;4.736;2023-05-16T01:31:50;4.72;;;1.50;;
8819;SDS011;4446;50.876;4.736;2023-05-16T01:34:17;3.60;;;1.33;;
8819;SDS011;4446;50.876;4.736;2023-05-16T01:36:46;6.13;;;1.90;;
8819;SDS011;4446;50.876;4.736;2023-05-16T01:39:21;3.55;;;1.30;;
8819;SDS011;4446;50.876;4.736;2023-05-16T01:41:58;5.55;;;1.92;;
8819;SDS011;4446;50.876;4.736;2023-05-16T01:44:30;4.82;;;1.35;;
8819;SDS011;4446;50.876;4.736;2023-05-16T01:47:02;6.13;;;1.50;;
8819;SDS011;4446;50.876;4.736;2023-05-16T01:49:34;6.20;;;1.90;;
8819;SDS011;4446;50.876;4.736;2023-05-16T01:52:06;6.82;;;1.92;;
8819;SDS011;4446;50.876;4.736;2023-05-16T01:54:37;5.18;;;1.60;;
8819;SDS011;4446;50.876;4.736;2023-05-16T01:57:09;5.35;;;1.65;;
8819;SDS011;4446;50.876;4.736;2023-05-16T01:59:40;7.50;;;1.70;;
8819;SDS011;4446;50.876;4.736;2023-05-16T02:02:09;3.47;;;1.80;;
8819;SDS011;4446;50.876;4.736;2023-05-16T02:04:36;4.50;;;1.52;;
8819;SDS011;4446;50.876;4.736;2023-05-16T02:07:03;2.78;;;1.30;;
8819;SDS011;4446;50.876;4.736;2023-05-16T02:09:30;5.18;;;1.77;;
8819;SDS011;4446;50.876;4.736;2023-05-16T02:11:58;6.38;;;1.73;;
8819;SDS011;4446;50.876;4.736;2023-05-16T02:14:27;6.68;;;1.67;;
8819;SDS011;4446;50.876;4.736;2023-05-16T02:16:54;7.50;;;1.60;;
8819;SDS011;4446;50.876;4.736;2023-05-16T02:19:21;3.10;;;1.60;;
8819;SDS011;4446;50.876;4.736;2023-05-16T02:21:48;5.88;;;1.50;;
8819;SDS011;4446;50.876;4.736;2023-05-16T02:24:16;3.05;;;1.48;;
8819;SDS011;4446;50.876;4.736;2023-05-16T02:26:43;7.43;;;1.77;;
8819;SDS011;4446;50.876;4.736;2023-05-16T02:29:10;7.53;;;2.15;;
8819;SDS011;4446;50.876;4.736;2023-05-16T02:31:38;8.25;;;1.90;;
8819;SDS011;4446;50.876;4.736;2023-05-16T02:34:06;4.05;;;1.70;;
8819;SDS011;4446;50.876;4.736;2023-05-16T02:36:35;4.55;;;1.83;;
8819;SDS011;4446;50.876;4.736;2023-05-16T02:39:02;10.48;;;1.60;;
8819;SDS011;4446;50.876;4.736;2023-05-16T02:41:29;5.32;;;1.75;;
8819;SDS011;4446;50.876;4.736;2023-05-16T02:43:56;6.38;;;1.67;;
8819;SDS011;4446;50.876;4.736;2023-05-16T02:46:24;3.13;;;1.48;;
8819;SDS011;4446;50.876;4.736;2023-05-16T02:48:53;3.20;;;1.40;;
8819;SDS011;4446;50.876;4.736;2023-05-16T02:51:21;8.18;;;1.73;;
8819;SDS011;4446;50.876;4.736;2023-05-16T02:53:49;2.65;;;1.30;;
8819;SDS011;4446;50.876;4.736;2023-05-16T02:56:16;7.68;;;1.70;;
8819;SDS011;4446;50.876;4.736;2023-05-16T02:58:45;5.45;;;1.73;;
8819;SDS011;4446;50.876;4.736;2023-05-16T03:01:14;5.22;;;1.92;;
8819;SDS011;4446;50.876;4.736;2023-05-16T03:03:42;3.53;;;1.30;;
8819;SDS011;4446;50.876;4.736;2023-05-16T03:06:10;5.13;;;1.65;;
8819;SDS011;4446;50.876;4.736;2023-05-16T03:08:37;3.00;;;1.60;;
8819;SDS011;4446;50.876;4.736;2023-05-16T03:11:04;11.38;;;2.33;;
8819;SDS011;4446;50.876;4.736;2023-05-16T03:13:31;6.88;;;1.70;;
8819;SDS011;4446;50.876;4.736;2023-05-16T03:15:58;5.10;;;1.40;;
8819;SDS011;4446;50.876;4.736;2023-05-16T03:18:25;3.60;;;1.77;;
8819;SDS011;4446;50.876;4.736;2023-05-16T03:20:52;3.33;;;1.60;;
8819;SDS011;4446;50.876;4.736;2023-05-16T03:23:21;5.90;;;1.85;;
8819;SDS011;4446;50.876;4.736;2023-05-16T03:25:48;4.10;;;1.70;;
8819;SDS011;4446;50.876;4.736;2023-05-16T03:28:16;3.75;;;1.75;;
8819;SDS011;4446;50.876;4.736;2023-05-16T03:30:43;5.63;;;1.40;;
8819;SDS011;4446;50.876;4.736;2023-05-16T03:33:10;3.50;;;1.52;;
8819;SDS011;4446;50.876;4.736;2023-05-16T03:35:37;4.32;;;1.60;;
8819;SDS011;4446;50.876;4.736;2023-05-16T03:38:05;2.80;;;1.45;;
8819;SDS011;4446;50.876;4.736;2023-05-16T03:40:33;2.55;;;1.50;;
8819;SDS011;4446;50.876;4.736;2023-05-16T03:43:00;7.55;;;1.85;;
8819;SDS011;4446;50.876;4.736;2023-05-16T03:45:28;8.45;;;1.95;;
8819;SDS011;4446;50.876;4.736;2023-05-16T03:47:55;4.30;;;1.77;;
8819;SDS011;4446;50.876;4.736;2023-05-16T03:50:22;4.13;;;1.70;;
8819;SDS011;4446;50.876;4.736;2023-05-16T03:52:49;5.95;;;2.08;;
8819;SDS011;4446;50.876;4.736;2023-05-16T03:55:18;6.35;;;1.95;;
8819;SDS011;4446;50.876;4.736;2023-05-16T03:57:46;6.65;;;1.58;;
8819;SDS011;4446;50.876;4.736;2023-05-16T04:00:14;7.75;;;1.90;;
8819;SDS011;4446;50.876;4.736;2023-05-16T04:02:41;4.65;;;2.05;;
8819;SDS011;4446;50.876;4.736;2023-05-16T04:05:09;9.55;;;1.50;;
8819;SDS011;4446;50.876;4.736;2023-05-16T04:07:38;4.20;;;1.67;;
8819;SDS011;4446;50.876;4.736;2023-05-16T04:10:05;7.18;;;1.80;;
8819;SDS011;4446;50.876;4.736;2023-05-16T04:12:33;4.68;;;1.33;;
8819;SDS011;4446;50.876;4.736;2023-05-16T04:15:02;3.28;;;1.40;;
8819;SDS011;4446;50.876;4.736;2023-05-16T04:17:29;5.15;;;1.63;;
8819;SDS011;4446;50.876;4.736;2023-05-16T04:19:56;6.18;;;2.10;;
8819;SDS011;4446;50.876;4.736;2023-05-16T04:22:23;2.78;;;1.90;;
8819;SDS011;4446;50.876;4.736;2023-05-16T04:24:51;3.67;;;1.70;;
8819;SDS011;4446;50.876;4.736;2023-05-16T04:27:18;3.53;;;1.42;;
8819;SDS011;4446;50.876;4.736;2023-05-16T04:29:45;3.33;;;1.30;;
8819;SDS011;4446;50.876;4.736;2023-05-16T04:32:15;4.70;;;1.60;;
8819;SDS011;4446;50.876;4.736;2023-05-16T04:34:43;5.30;;;1.60;;
8819;SDS011;4446;50.876;4.736;2023-05-16T04:37:12;4.10;;;1.55;;
8819;SDS011;4446;50.876;4.736;2023-05-16T04:39:41;4.07;;;1.70;;
8819;SDS011;4446;50.876;4.736;2023-05-16T04:42:08;6.97;;;3.53;;
8819;SDS011;4446;50.876;4.736;2023-05-16T04:44:35;5.25;;;1.95;;
8819;SDS011;4446;50.876;4.736;2023-05-16T04:47:02;4.50;;;2.00;;
8819;SDS011;4446;50.876;4.736;2023-05-16T04:49:30;8.25;;;2.20;;
8819;SDS011;4446;50.876;4.736;2023-05-16T04:51:57;4.05;;;1.63;;
8819;SDS011;4446;50.876;4.736;2023-05-16T04:54:24;4.75;;;1.98;;
8819;SDS011;4446;50.876;4.736;2023-05-16T04:56:51;9.25;;;2.63;;
8819;SDS011;4446;50.876;4.736;2023-05-16T04:59:18;5.72;;;2.20;;
8819;SDS011;4446;50.876;4.736;2023-05-16T05:01:45;3.33;;;1.65;;
8819;SDS011;4446;50.876;4.736;2023-05-16T05:04:12;4.75;;;1.80;;
8819;SDS011;4446;50.876;4.736;2023-05-16T05:06:43;2.33;;;1.73;;
8819;SDS011;4446;50.876;4.736;2023-05-16T05:09:10;4.50;;;1.90;;
8819;SDS011;4446;50.876;4.736;2023-05-16T05:11:37;4.07;;;1.92;;
8819;SDS011;4446;50.876;4.736;2023-05-16T05:14:04;10.57;;;2.33;;
8819;SDS011;4446;50.876;4.736;2023-05-16T05:16:31;6.07;;;1.92;;
8819;SDS011;4446;50.876;4.736;2023-05-16T05:18:58;6.07;;;2.28;;
8819;SDS011;4446;50.876;4.736;2023-05-16T05:21:26;7.05;;;2.05;;
8819;SDS011;4446;50.876;4.736;2023-05-16T05:23:56;6.07;;;2.08;;
8819;SDS011;4446;50.876;4.736;2023-05-16T05:26:23;5.88;;;2.38;;
8819;SDS011;4446;50.876;4.736;2023-05-16T05:28:50;4.50;;;2.60;;
8819;SDS011;4446;50.876;4.736;2023-05-16T05:31:17;7.10;;;2.45;;
8819;SDS011;4446;50.876;4.736;2023-05-16T05:33:44;4.47;;;2.08;;
8819;SDS011;4446;50.876;4.736;2023-05-16T05:36:11;6.65;;;2.15;;
8819;SDS011;4446;50.876;4.736;2023-05-16T05:38:38;5.15;;;2.10;;
8819;SDS011;4446;50.876;4.736;2023-05-16T05:41:06;8.60;;;2.50;;
8819;SDS011;4446;50.876;4.736;2023-05-16T05:43:36;4.85;;;2.17;;
8819;SDS011;4446;50.876;4.736;2023-05-16T05:46:03;10.98;;;2.80;;
8819;SDS011;4446;50.876;4.736;2023-05-16T05:48:31;5.63;;;2.50;;
8819;SDS011;4446;50.876;4.736;2023-05-16T05:50:58;14.65;;;2.58;;
8819;SDS011;4446;50.876;4.736;2023-05-16T05:53:25;7.82;;;2.42;;
8819;SDS011;4446;50.876;4.736;2023-05-16T05:55:52;5.32;;;2.30;;
8819;SDS011;4446;50.876;4.736;2023-05-16T05:58:20;7.68;;;1.90;;
8819;SDS011;4446;50.876;4.736;2023-05-16T06:00:47;3.78;;;2.00;;
8819;SDS011;4446;50.876;4.736;2023-05-16T06:03:14;3.40;;;2.20;;
8819;SDS011;4446;50.876;4.736;2023-05-16T06:05:41;6.82;;;1.95;;
8819;SDS011;4446;50.876;4.736;2023-05-16T06:08:09;6.25;;;2.05;;
8819;SDS011;4446;50.876;4.736;2023-05-16T06:10:36;4.47;;;1.90;;
8819;SDS011;4446;50.876;4.736;2023-05-16T06:13:03;4.50;;;1.77;;
8819;SDS011;4446;50.876;4.736;2023-05-16T06:15:31;4.93;;;2.05;;
8819;SDS011;4446;50.876;4.736;2023-05-16T06:17:58;5.68;;;1.77;;
8819;SDS011;4446;50.876;4.736;2023-05-16T06:20:25;3.95;;;1.60;;
8819;SDS011;4446;50.876;4.736;2023-05-16T06:22:52;5.93;;;1.58;;
8819;SDS011;4446;50.876;4.736;2023-05-16T06:25:19;4.45;;;2.08;;
8819;SDS011;4446;50.876;4.736;2023-05-16T06:27:46;4.15;;;1.42;;
8819;SDS011;4446;50.876;4.736;2023-05-16T06:30:13;3.58;;;1.30;;
8819;SDS011;4446;50.876;4.736;2023-05-16T06:32:42;7.07;;;2.03;;
8819;SDS011;4446;50.876;4.736;2023-05-16T06:35:09;3.53;;;1.60;;
8819;SDS011;4446;50.876;4.736;2023-05-16T06:37:36;7.03;;;1.95;;
8819;SDS011;4446;50.876;4.736;2023-05-16T06:40:03;2.50;;;1.10;;
8819;SDS011;4446;50.876;4.736;2023-05-16T06:42:31;5.10;;;1.50;;
8819;SDS011;4446;50.876;4.736;2023-05-16T06:44:58;8.25;;;1.50;;
8819;SDS011;4446;50.876;4.736;2023-05-16T06:47:25;5.60;;;1.50;;
8819;SDS011;4446;50.876;4.736;2023-05-16T06:49:54;9.65;;;1.67;;
8819;SDS011;4446;50.876;4.736;2023-05-16T06:52:21;4.93;;;1.40;;
8819;SDS011;4446;50.876;4.736;2023-05-16T06:54:48;5.07;;;1.50;;
8819;SDS011;4446;50.876;4.736;2023-05-16T06:57:16;5.10;;;1.42;;
8819;SDS011;4446;50.876;4.736;2023-05-16T06:59:43;5.85;;;1.73;;
8819;SDS011;4446;50.876;4.736;2023-05-16T07:02:10;6.22;;;1.38;;
8819;SDS011;4446;50.876;4.736;2023-05-16T07:04:37;3.25;;;1.50;;
8819;SDS011;4446;50.876;4.736;2023-05-16T07:07:06;3.58;;;1.38;;
8819;SDS011;4446;50.876;4.736;2023-05-16T07:09:33;6.22;;;1.58;;
8819;SDS011;4446;50.876;4.736;2023-05-16T07:12:00;5.47;;;1.50;;
8819;SDS011;4446;50.876;4.736;2023-05-16T07:14:27;3.17;;;1.40;;
8819;SDS011;4446;50.876;4.736;2023-05-16T07:16:54;3.13;;;1.55;;
8819;SDS011;4446;50.876;4.736;2023-05-16T07:19:21;8.20;;;1.33;;
8819;SDS011;4446;50.876;4.736;2023-05-16T07:21:48;4.45;;;1.20;;
8819;SDS011;4446;50.876;4.736;2023-05-16T07:24:16;4.38;;;1.40;;
8819;SDS011;4446;50.876;4.736;2023-05-16T07:26:43;9.93;;;1.85;;
8819;SDS011;4446;50.876;4.736;2023-05-16T07:29:11;3.95;;;1.20;;
8819;SDS011;4446;50.876;4.736;2023-05-16T07:31:38;4.57;;;1.30;;
8819;SDS011;4446;50.876;4.736;2023-05-16T07:34:05;2.00;;;1.42;;
8819;SDS011;4446;50.876;4.736;2023-05-16T07:36:32;6.15;;;1.45;;
8819;SDS011;4446;50.876;4.736;2023-05-16T07:39:00;4.45;;;1.30;;
8819;SDS011;4446;50.876;4.736;2023-05-16T07:41:28;3.35;;;1.00;;
8819;SDS011;4446;50.876;4.736;2023-05-16T07:43:56;1.95;;;1.23;;
8819;SDS011;4446;50.876;4.736;2023-05-16T07:46:23;3.05;;;1.42;;
8819;SDS011;4446;50.876;4.736;2023-05-16T07:48:50;3.25;;;1.15;;
8819;SDS011;4446;50.876;4.736;2023-05-16T07:51:17;2.92;;;1.00;;
8819;SDS011;4446;50.876;4.736;2023-05-16T07:53:44;2.67;;;1.00;;
8819;SDS011;4446;50.876;4.736;2023-05-16T07:56:11;2.78;;;0.70;;
8819;SDS011;4446;50.876;4.736;2023-05-16T07:58:40;0.80;;;0.80;;
8819;SDS011;4446;50.876;4.736;2023-05-16T08:01:07;3.00;;;1.00;;
8819;SDS011;4446;50.876;4.736;2023-05-16T08:03:34;2.08;;;1.17;;
8819;SDS011;4446;50.876;4.736;2023-05-16T08:06:01;2.22;;;0.88;;
8819;SDS011;4446;50.876;4.736;2023-05-16T08:08:28;2.00;;;1.02;;
8819;SDS011;4446;50.876;4.736;2023-05-16T08:10:55;0.95;;;0.80;;
8819;SDS011;4446;50.876;4.736;2023-05-16T08:13:22;4.45;;;0.90;;
8819;SDS011;4446;50.876;4.736;2023-05-16T08:15:51;3.47;;;1.17;;
8819;SDS011;4446;50.876;4.736;2023-05-16T08:18:18;3.85;;;1.20;;
8819;SDS011;4446;50.876;4.736;2023-05-16T08:20:45;3.10;;;1.30;;
8819;SDS011;4446;50.876;4.736;2023-05-16T08:23:12;2.40;;;1.02;;
8819;SDS011;4446;50.876;4.736;2023-05-16T08:25:40;3.70;;;1.20;;
8819;SDS011;4446;50.876;4.736;2023-05-16T08:28:07;3.97;;;1.10;;
8819;SDS011;4446;50.876;4.736;2023-05-16T08:30:34;3.50;;;1.13;;
8819;SDS011;4446;50.876;4.736;2023-05-16T08:33:02;4.13;;;1.00;;
8819;SDS011;4446;50.876;4.736;2023-05-16T08:35:30;3.53;;;1.20;;
8819;SDS011;4446;50.876;4.736;2023-05-16T08:37:59;2.95;;;1.00;;
8819;SDS011;4446;50.876;4.736;2023-05-16T08:40:27;5.53;;;1.30;;
8819;SDS011;4446;50.876;4.736;2023-05-16T08:42:54;4.45;;;1.67;;
8819;SDS011;4446;50.876;4.736;2023-05-16T08:45:21;3.17;;;1.05;;
8819;SDS011;4446;50.876;4.736;2023-05-16T08:47:49;2.33;;;1.15;;
8819;SDS011;4446;50.876;4.736;2023-05-16T08:50:20;1.63;;;0.95;;
8819;SDS011;4446;50.876;4.736;2023-05-16T08:52:50;3.90;;;1.10;;
8819;SDS011;4446;50.876;4.736;2023-05-16T08:55:18;3.63;;;1.20;;
8819;SDS011;4446;50.876;4.736;2023-05-16T08:57:47;1.30;;;1.05;;
8819;SDS011;4446;50.876;4.736;2023-05-16T09:00:15;2.97;;;1.00;;
8819;SDS011;4446;50.876;4.736;2023-05-16T09:02:43;4.18;;;1.55;;
8819;SDS011;4446;50.876;4.736;2023-05-16T09:05:11;2.80;;;1.10;;
8819;SDS011;4446;50.876;4.736;2023-05-16T09:07:41;1.88;;;1.20;;
8819;SDS011;4446;50.876;4.736;2023-05-16T09:10:10;4.15;;;1.38;;
8819;SDS011;4446;50.876;4.736;2023-05-16T09:12:38;3.25;;;1.20;;
8819;SDS011;4446;50.876;4.736;2023-05-16T09:15:05;2.00;;;1.20;;
8819;SDS011;4446;50.876;4.736;2023-05-16T09:17:34;1.23;;;1.00;;
8819;SDS011;4446;50.876;4.736;2023-05-16T09:20:09;2.35;;;1.50;;
8819;SDS011;4446;50.876;4.736;2023-05-16T09:22:37;2.70;;;1.10;;
8819;SDS011;4446;50.876;4.736;2023-05-16T09:25:07;4.10;;;1.20;;
8819;SDS011;4446;50.876;4.736;2023-05-16T09:27:34;5.05;;;1.23;;
8819;SDS011;4446;50.876;4.736;2023-05-16T09:30:02;1.48;;;1.15;;
8819;SDS011;4446;50.876;4.736;2023-05-16T09:32:30;4.93;;;2.13;;
8819;SDS011;4446;50.876;4.736;2023-05-16T09:34:57;2.72;;;1.27;;
8819;SDS011;4446;50.876;4.736;2023-05-16T09:37:24;2.72;;;1.10;;
8819;SDS011;4446;50.876;4.736;2023-05-16T09:39:52;1.23;;;1.13;;
8819;SDS011;4446;50.876;4.736;2023-05-16T09:42:22;3.75;;;1.30;;
8819;SDS011;4446;50.876;4.736;2023-05-16T09:44:52;3.10;;;1.15;;
8819;SDS011;4446;50.876;4.736;2023-05-16T09:47:20;4.60;;;1.50;;
8819;SDS011;4446;50.876;4.736;2023-05-16T09:49:51;2.70;;;1.10;;
8819;SDS011;4446;50.876;4.736;2023-05-16T09:52:18;2.05;;;1.15;;
8819;SDS011;4446;50.876;4.736;2023-05-16T09:54:45;2.13;;;1.33;;
8819;SDS011;4446;50.876;4.736;2023-05-16T09:57:16;2.65;;;1.00;;
8819;SDS011;4446;50.876;4.736;2023-05-16T09:59:45;2.05;;;1.00;;
8819;SDS011;4446;50.876;4.736;2023-05-16T10:02:12;2.70;;;1.10;;
8819;SDS011;4446;50.876;4.736;2023-05-16T10:04:40;3.38;;;1.48;;
8819;SDS011;4446;50.876;4.736;2023-05-16T10:07:08;2.35;;;1.10;;
8819;SDS011;4446;50.876;4.736;2023-05-16T10:09:37;1.50;;;1.02;;
8819;SDS011;4446;50.876;4.736;2023-05-16T10:12:06;2.03;;;0.98;;
8819;SDS011;4446;50.876;4.736;2023-05-16T10:14:36;1.75;;;1.20;;
8819;SDS011;4446;50.876;4.736;2023-05-16T10:17:08;3.13;;;1.20;;
8819;SDS011;4446;50.876;4.736;2023-05-16T10:19:39;2.33;;;1.20;;
8819;SDS011;4446;50.876;4.736;2023-05-16T10:22:07;3.42;;;1.27;;
8819;SDS011;4446;50.876;4.736;2023-05-16T10:24:38;3.20;;;1.10;;
8819;SDS011;4446;50.876;4.736;2023-05-16T10:27:09;4.70;;;1.40;;
8819;SDS011;4446;50.876;4.736;2023-05-16T10:29:36;3.78;;;1.20;;
8819;SDS011;4446;50.876;4.736;2023-05-16T10:32:04;7.18;;;2.28;;
8819;SDS011;4446;50.876;4.736;2023-05-16T10:34:34;3.95;;;1.17;;
8819;SDS011;4446;50.876;4.736;2023-05-16T10:37:01;3.20;;;1.17;;
8819;SDS011;4446;50.876;4.736;2023-05-16T10:39:30;1.42;;;1.05;;
8819;SDS011;4446;50.876;4.736;2023-05-16T10:41:58;2.30;;;1.00;;
8819;SDS011;4446;50.876;4.736;2023-05-16T10:44:25;2.00;;;1.08;;
8819;SDS011;4446;50.876;4.736;2023-05-16T10:46:57;2.63;;;1.00;;
8819;SDS011;4446;50.876;4.736;2023-05-16T10:49:25;1.63;;;0.80;;
8819;SDS011;4446;50.876;4.736;2023-05-16T10:52:05;3.60;;;1.00;;
8819;SDS011;4446;50.876;4.736;2023-05-16T10:54:34;3.50;;;1.10;;
8819;SDS011;4446;50.876;4.736;2023-05-16T10:57:06;1.63;;;0.88;;
8819;SDS011;4446;50.876;4.736;2023-05-16T10:59:40;3.30;;;0.90;;
8819;SDS011;4446;50.876;4.736;2023-05-16T11:02:21;1.85;;;0.80;;
8819;SDS011;4446;50.876;4.736;2023-05-16T11:04:50;2.15;;;0.95;;
8819;SDS011;4446;50.876;4.736;2023-05-16T11:07:20;1.77;;;0.80;;
8819;SDS011;4446;50.876;4.736;2023-05-16T11:10:01;3.20;;;1.00;;
8819;SDS011;4446;50.876;4.736;2023-05-16T11:12:37;3.25;;;1.08;;
8819;SDS011;4446;50.876;4.736;2023-05-16T11:15:19;2.17;;;1.10;;
8819;SDS011;4446;50.876;4.736;2023-05-16T11:17:48;3.25;;;1.00;;
8819;SDS011;4446;50.876;4.736;2023-05-16T11:20:25;2.42;;;1.00;;
8819;SDS011;4446;50.876;4.736;2023-05-16T11:25:46;1.17;;;1.00;;
8819;SDS011;4446;50.876;4.736;2023-05-16T11:28:15;1.75;;;0.90;;
8819;SDS011;4446;50.876;4.736;2023-05-16T11:30:44;3.95;;;1.10;;
8819;SDS011;4446;50.876;4.736;2023-05-16T11:33:13;4.15;;;1.45;;
8819;SDS011;4446;50.876;4.736;2023-05-16T11:35:40;1.40;;;1.02;;
8819;SDS011;4446;50.876;4.736;2023-05-16T11:38:11;4.13;;;1.02;;
8819;SDS011;4446;50.876;4.736;2023-05-16T11:40:45;2.50;;;0.93;;
8819;SDS011;4446;50.876;4.736;2023-05-16T11:43:16;3.83;;;1.08;;
8819;SDS011;4446;50.876;4.736;2023-05-16T11:45:44;2.40;;;1.20;;
8819;SDS011;4446;50.876;4.736;2023-05-16T11:48:11;1.42;;;1.10;;
8819;SDS011;4446;50.876;4.736;2023-05-16T11:50:38;3.63;;;1.30;;
8819;SDS011;4446;50.876;4.736;2023-05-16T11:53:05;1.42;;;0.90;;
8819;SDS011;4446;50.876;4.736;2023-05-16T11:55:33;3.72;;;1.20;;
8819;SDS011;4446;50.876;4.736;2023-05-16T11:58:02;2.28;;;1.10;;
8819;SDS011;4446;50.876;4.736;2023-05-16T12:00:29;2.28;;;1.00;;
8819;SDS011;4446;50.876;4.736;2023-05-16T12:02:59;3.15;;;0.90;;
8819;SDS011;4446;50.876;4.736;2023-05-16T12:05:28;1.70;;;1.20;;
8819;SDS011;4446;50.876;4.736;2023-05-16T12:07:56;2.45;;;1.10;;
8819;SDS011;4446;50.876;4.736;2023-05-16T12:10:23;2.97;;;1.10;;
8819;SDS011;4446;50.876;4.736;2023-05-16T12:12:51;2.30;;;1.20;;
8819;SDS011;4446;50.876;4.736;2023-05-16T12:15:20;2.28;;;1.20;;
8819;SDS011;4446;50.876;4.736;2023-05-16T12:17:47;2.28;;;1.30;;
8819;SDS011;4446;50.876;4.736;2023-05-16T12:20:14;1.80;;;0.90;;
8819;SDS011;4446;50.876;4.736;2023-05-16T12:22:42;1.35;;;1.15;;
8819;SDS011;4446;50.876;4.736;2023-05-16T12:25:20;2.55;;;1.00;;
8819;SDS011;4446;50.876;4.736;2023-05-16T12:27:49;3.20;;;1.15;;
8819;SDS011;4446;50.876;4.736;2023-05-16T12:30:17;2.00;;;1.20;;
8819;SDS011;4446;50.876;4.736;2023-05-16T12:32:51;1.27;;;1.15;;
8819;SDS011;4446;50.876;4.736;2023-05-16T12:35:18;2.75;;;1.17;;
8819;SDS011;4446;50.876;4.736;2023-05-16T12:37:47;1.30;;;1.13;;
8819;SDS011;4446;50.876;4.736;2023-05-16T12:40:15;1.42;;;1.00;;
8819;SDS011;4446;50.876;4.736;2023-05-16T12:42:44;1.42;;;1.10;;
8819;SDS011;4446;50.876;4.736;2023-05-16T12:45:14;3.22;;;1.00;;
8819;SDS011;4446;50.876;4.736;2023-05-16T12:47:43;3.08;;;1.15;;
8819;SDS011;4446;50.876;4.736;2023-05-16T12:50:11;1.48;;;1.02;;
8819;SDS011;4446;50.876;4.736;2023-05-16T12:52:47;3.45;;;1.42;;
8819;SDS011;4446;50.876;4.736;2023-05-16T12:55:15;1.35;;;1.00;;
8819;SDS011;4446;50.876;4.736;2023-05-16T12:57:42;1.48;;;0.80;;
8819;SDS011;4446;50.876;4.736;2023-05-16T13:00:12;2.47;;;1.20;;
8819;SDS011;4446;50.876;4.736;2023-05-16T13:02:40;2.75;;;1.20;;
8819;SDS011;4446;50.876;4.736;2023-05-16T13:05:08;2.78;;;1.17;;
8819;SDS011;4446;50.876;4.736;2023-05-16T13:07:36;2.00;;;1.20;;
8819;SDS011;4446;50.876;4.736;2023-05-16T13:10:05;3.80;;;1.20;;
8819;SDS011;4446;50.876;4.736;2023-05-16T13:12:34;1.48;;;1.08;;
8819;SDS011;4446;50.876;4.736;2023-05-16T13:15:03;1.70;;;1.00;;
8819;SDS011;4446;50.876;4.736;2023-05-16T13:17:31;2.13;;;1.00;;
8819;SDS011;4446;50.876;4.736;2023-05-16T13:19:58;1.33;;;0.88;;
8819;SDS011;4446;50.876;4.736;2023-05-16T13:22:27;1.90;;;0.80;;
8819;SDS011;4446;50.876;4.736;2023-05-16T13:24:54;2.28;;;1.10;;
8819;SDS011;4446;50.876;4.736;2023-05-16T13:27:21;2.70;;;0.90;;
8819;SDS011;4446;50.876;4.736;2023-05-16T13:29:48;2.03;;;0.95;;
8819;SDS011;4446;50.876;4.736;2023-05-16T13:32:15;2.10;;;0.93;;
8819;SDS011;4446;50.876;4.736;2023-05-16T13:34:43;2.50;;;1.00;;
8819;SDS011;4446;50.876;4.736;2023-05-16T13:37:10;2.75;;;1.10;;
8819;SDS011;4446;50.876;4.736;2023-05-16T13:39:38;2.38;;;1.02;;
8819;SDS011;4446;50.876;4.736;2023-05-16T13:42:05;2.05;;;0.85;;
8819;SDS011;4446;50.876;4.736;2023-05-16T13:44:32;2.40;;;1.20;;
8819;SDS011;4446;50.876;4.736;2023-05-16T13:46:59;2.55;;;1.00;;
8819;SDS011;4446;50.876;4.736;2023-05-16T13:49:26;2.47;;;0.95;;
8819;SDS011;4446;50.876;4.736;2023-05-16T13:51:54;3.80;;;1.20;;
8819;SDS011;4446;50.876;4.736;2023-05-16T13:54:22;3.30;;;1.10;;
8819;SDS011;4446;50.876;4.736;2023-05-16T13:56:50;3.10;;;1.17;;
8819;SDS011;4446;50.876;4.736;2023-05-16T13:59:17;1.70;;;1.00;;
8819;SDS011;4446;50.876;4.736;2023-05-16T14:01:44;3.08;;;1.02;;
8819;SDS011;4446;50.876;4.736;2023-05-16T14:04:11;3.15;;;1.20;;
8819;SDS011;4446;50.876;4.736;2023-05-16T14:06:38;4.07;;;1.20;;
8819;SDS011;4446;50.876;4.736;2023-05-16T14:09:07;3.25;;;1.08;;
8819;SDS011;4446;50.876;4.736;2023-05-16T14:11:34;1.55;;;1.13;;
8819;SDS011;4446;50.876;4.736;2023-05-16T14:14:02;4.57;;;1.20;;
8819;SDS011;4446;50.876;4.736;2023-05-16T14:16:29;7.05;;;1.20;;
8819;SDS011;4446;50.876;4.736;2023-05-16T14:18:57;2.55;;;1.17;;
8819;SDS011;4446;50.876;4.736;2023-05-16T14:21:24;2.10;;;1.08;;
8819;SDS011;4446;50.876;4.736;2023-05-16T14:23:51;2.35;;;1.38;;
8819;SDS011;4446;50.876;4.736;2023-05-16T14:26:19;1.92;;;0.90;;
8819;SDS011;4446;50.876;4.736;2023-05-16T14:28:49;2.28;;;1.10;;
8819;SDS011;4446;50.876;4.736;2023-05-16T14:31:18;2.08;;;0.90;;
8819;SDS011;4446;50.876;4.736;2023-05-16T14:33:45;4.18;;;1.10;;
8819;SDS011;4446;50.876;4.736;2023-05-16T14:36:12;2.58;;;1.17;;
8819;SDS011;4446;50.876;4.736;2023-05-16T14:38:40;2.97;;;1.02;;
8819;SDS011;4446;50.876;4.736;2023-05-16T14:41:07;3.25;;;1.40;;
8819;SDS011;4446;50.876;4.736;2023-05-16T14:43:34;1.02;;;0.80;;
8819;SDS011;4446;50.876;4.736;2023-05-16T14:46:02;2.38;;;0.90;;
8819;SDS011;4446;50.876;4.736;2023-05-16T14:48:31;3.65;;;0.90;;
8819;SDS011;4446;50.876;4.736;2023-05-16T14:50:58;3.85;;;1.20;;
8819;SDS011;4446;50.876;4.736;2023-05-16T14:53:25;6.45;;;1.00;;
8819;SDS011;4446;50.876;4.736;2023-05-16T14:55:52;3.28;;;0.90;;
8819;SDS011;4446;50.876;4.736;2023-05-16T14:58:19;2.42;;;1.00;;
8819;SDS011;4446;50.876;4.736;2023-05-16T15:00:46;2.65;;;0.80;;
8819;SDS011;4446;50.876;4.736;2023-05-16T15:03:14;0.90;;;0.73;;
8819;SDS011;4446;50.876;4.736;2023-05-16T15:05:43;2.13;;;1.10;;
8819;SDS011;4446;50.876;4.736;2023-05-16T15:08:10;2.90;;;1.20;;
8819;SDS011;4446;50.876;4.736;2023-05-16T15:10:37;1.70;;;1.00;;
8819;SDS011;4446;50.876;4.736;2023-05-16T15:13:04;2.05;;;0.95;;
8819;SDS011;4446;50.876;4.736;2023-05-16T15:15:31;2.05;;;1.10;;
8819;SDS011;4446;50.876;4.736;2023-05-16T15:17:58;3.30;;;0.90;;
8819;SDS011;4446;50.876;4.736;2023-05-16T15:20:25;1.50;;;0.90;;
8819;SDS011;4446;50.876;4.736;2023-05-16T15:22:54;3.55;;;1.00;;
8819;SDS011;4446;50.876;4.736;2023-05-16T15:25:21;3.00;;;0.98;;